createdAt,value
2023-02-14T00:00:33.517Z,26.95
2023-02-14T00:03:00.759Z,27.65
2023-02-14T00:05:27.918Z,26.27
2023-02-14T00:07:55.140Z,24.27
2023-02-14T00:10:22.302Z,28.45
2023-02-14T00:12:49.467Z,28.13
2023-02-14T00:15:22.583Z,26.90
2023-02-14T00:17:54.626Z,25.52
2023-02-14T00:20:25.030Z,22.38
2023-02-14T00:22:52.187Z,22.90
2023-02-14T00:25:19.422Z,22.70
2023-02-14T00:27:46.639Z,22.60
2023-02-14T00:30:13.978Z,21.13
2023-02-14T00:32:41.274Z,23.85
2023-02-14T00:35:08.659Z,23.27
2023-02-14T00:37:35.820Z,21.92
2023-02-14T00:40:02.981Z,22.65
2023-02-14T00:42:30.286Z,22.63
2023-02-14T00:44:57.437Z,22.10
2023-02-14T00:47:24.622Z,24.83
2023-02-14T00:49:51.785Z,24.00
2023-02-14T00:52:18.930Z,25.55
2023-02-14T00:54:46.091Z,23.45
2023-02-14T00:57:13.242Z,23.42
2023-02-14T00:59:40.542Z,20.40
2023-02-14T01:02:07.736Z,29.03
2023-02-14T01:04:35.093Z,29.50
2023-02-14T01:07:02.242Z,30.17
2023-02-14T01:09:29.401Z,31.42
2023-02-14T01:11:56.537Z,25.95
2023-02-14T01:14:23.664Z,25.05
2023-02-14T01:16:50.863Z,27.70
2023-02-14T01:19:18.000Z,24.47
2023-02-14T01:21:45.214Z,28.05
2023-02-14T01:24:12.368Z,27.88
2023-02-14T01:26:39.834Z,26.92
2023-02-14T01:29:07.106Z,28.70
2023-02-14T01:31:34.692Z,25.23
2023-02-14T01:34:02.053Z,25.07
2023-02-14T01:36:30.211Z,26.75
2023-02-14T01:38:59.008Z,25.65
2023-02-14T01:41:26.681Z,25.70
2023-02-14T01:43:55.757Z,22.50
2023-02-14T01:46:23.028Z,25.77
2023-02-14T01:48:50.306Z,26.48
2023-02-14T01:51:17.648Z,30.35
2023-02-14T01:53:45.096Z,32.90
2023-02-14T01:56:17.229Z,32.20
2023-02-14T01:58:45.140Z,33.95
2023-02-14T02:01:15.696Z,26.67
2023-02-14T02:03:51.277Z,28.63
2023-02-14T02:06:27.186Z,31.65
2023-02-14T02:09:10.159Z,31.48
2023-02-14T02:11:37.998Z,30.58
2023-02-14T02:14:05.505Z,32.83
2023-02-14T02:16:51.471Z,26.42
2023-02-14T02:19:27.744Z,25.98
2023-02-14T02:22:09.929Z,35.45
2023-02-14T02:24:47.422Z,29.20
2023-02-14T02:27:33.439Z,33.40
2023-02-14T02:30:09.373Z,34.97
2023-02-14T02:32:40.615Z,35.88
2023-02-14T02:35:26.149Z,35.53
2023-02-14T02:37:59.153Z,35.10
2023-02-14T02:40:30.589Z,32.97
2023-02-14T02:43:06.938Z,38.75
2023-02-14T02:45:37.157Z,35.42
2023-02-14T02:48:07.894Z,34.58
2023-02-14T02:50:57.172Z,36.65
2023-02-14T02:53:36.657Z,32.72
2023-02-14T02:56:23.280Z,35.40
2023-02-14T02:59:01.458Z,34.30
2023-02-14T03:01:32.592Z,32.78
2023-02-14T03:04:19.212Z,36.22
2023-02-14T03:06:46.612Z,34.95
2023-02-14T03:09:34.829Z,38.65
2023-02-14T03:12:01.957Z,39.33
2023-02-14T03:14:36.272Z,37.53
2023-02-14T03:17:05.733Z,35.97
2023-02-14T03:20:09.031Z,38.38
2023-02-14T03:22:42.097Z,36.78
2023-02-14T03:25:17.364Z,34.40
2023-02-14T03:27:55.817Z,34.03
2023-02-14T03:30:37.151Z,35.35
2023-02-14T03:33:09.641Z,37.53
2023-02-14T03:35:38.109Z,36.13
2023-02-14T03:38:09.496Z,34.88
2023-02-14T03:40:36.618Z,32.55
2023-02-14T03:43:08.268Z,33.55
2023-02-14T03:45:37.202Z,34.50
2023-02-14T03:48:05.312Z,36.75
2023-02-14T03:50:32.548Z,36.92
2023-02-14T03:52:59.683Z,32.20
2023-02-14T03:55:37.238Z,31.30
2023-02-14T03:58:07.327Z,32.55
2023-02-14T04:00:34.484Z,30.85
2023-02-14T04:03:02.746Z,33.80
2023-02-14T04:05:29.954Z,29.70
2023-02-14T04:07:58.610Z,31.25
2023-02-14T04:10:26.136Z,29.67
2023-02-14T04:12:53.931Z,29.15
2023-02-14T04:15:21.118Z,30.90
2023-02-14T04:18:07.233Z,32.38
2023-02-14T04:20:34.400Z,34.25
2023-02-14T04:23:03.408Z,36.28
2023-02-14T04:25:30.832Z,32.63
2023-02-14T04:27:58.002Z,33.58
2023-02-14T04:30:25.247Z,36.70
2023-02-14T04:32:52.449Z,38.92
2023-02-14T04:35:19.636Z,35.90
2023-02-14T04:37:46.813Z,34.88
2023-02-14T04:40:17.288Z,35.50
2023-02-14T04:42:45.200Z,38.50
2023-02-14T04:45:12.346Z,36.08
2023-02-14T04:47:39.557Z,35.63
2023-02-14T04:50:07.072Z,39.83
2023-02-14T04:52:34.283Z,36.45
2023-02-14T04:55:01.480Z,37.13
2023-02-14T04:57:28.636Z,36.03
2023-02-14T04:59:55.792Z,37.72
2023-02-14T05:02:22.987Z,33.22
2023-02-14T05:04:50.119Z,33.00
2023-02-14T05:07:17.371Z,34.38
2023-02-14T05:09:44.491Z,40.75
2023-02-14T05:12:11.772Z,37.67
2023-02-14T05:14:38.926Z,39.20
2023-02-14T05:17:06.121Z,42.47
2023-02-14T05:19:33.286Z,40.50
2023-02-14T05:22:00.422Z,38.55
2023-02-14T05:24:27.673Z,35.75
2023-02-14T05:26:55.528Z,39.75
2023-02-14T05:29:22.708Z,38.67
2023-02-14T05:31:49.903Z,38.63
2023-02-14T05:34:17.213Z,43.03
2023-02-14T05:36:44.388Z,40.27
2023-02-14T05:39:14.552Z,45.08
2023-02-14T05:41:41.939Z,46.58
2023-02-14T05:44:09.274Z,43.58
2023-02-14T05:46:36.568Z,38.58
2023-02-14T05:49:04.182Z,39.70
2023-02-14T05:51:31.444Z,38.33
2023-02-14T05:54:00.244Z,39.13
2023-02-14T05:56:27.785Z,38.15
2023-02-14T05:58:54.971Z,40.10
2023-02-14T06:01:22.434Z,43.28
2023-02-14T06:03:49.587Z,46.35
2023-02-14T06:06:16.707Z,46.70
2023-02-14T06:08:43.963Z,41.15
2023-02-14T06:11:11.120Z,40.72
2023-02-14T06:13:40.332Z,39.05
2023-02-14T06:16:07.618Z,35.50
2023-02-14T06:18:35.041Z,44.55
2023-02-14T06:21:02.503Z,44.10
2023-02-14T06:23:29.867Z,43.20
2023-02-14T06:25:57.021Z,43.15
2023-02-14T06:28:24.163Z,36.25
2023-02-14T06:30:51.419Z,41.23
2023-02-14T06:33:18.679Z,40.93
2023-02-14T06:35:45.852Z,37.83
2023-02-14T06:38:13.006Z,38.38
2023-02-14T06:40:40.141Z,39.13
2023-02-14T06:43:07.353Z,40.42
2023-02-14T06:45:34.552Z,41.85
2023-02-14T06:48:01.704Z,39.95
2023-02-14T06:50:28.879Z,36.77
2023-02-14T06:52:56.039Z,46.10
2023-02-14T06:55:23.232Z,35.20
2023-02-14T06:57:50.380Z,41.58
2023-02-14T07:00:17.811Z,38.30
2023-02-14T07:02:45.073Z,38.70
2023-02-14T07:05:12.346Z,42.25
2023-02-14T07:07:39.547Z,42.40
2023-02-14T07:10:07.047Z,35.58
2023-02-14T07:12:34.963Z,36.97
2023-02-14T07:15:02.157Z,38.83
2023-02-14T07:17:29.479Z,39.03
2023-02-14T07:19:56.649Z,44.10
2023-02-14T07:22:23.815Z,39.03
2023-02-14T07:24:51.254Z,45.75
2023-02-14T07:27:18.540Z,49.35
2023-02-14T07:29:45.759Z,42.80
2023-02-14T07:32:13.026Z,43.70
2023-02-14T07:34:40.343Z,42.95
2023-02-14T07:37:07.539Z,43.65
2023-02-14T07:39:34.692Z,42.00
2023-02-14T07:42:01.880Z,39.15
2023-02-14T07:44:29.016Z,39.92
2023-02-14T07:46:56.341Z,41.33
2023-02-14T07:49:23.514Z,38.67
2023-02-14T07:51:50.687Z,38.45
2023-02-14T07:54:19.662Z,39.47
2023-02-14T07:56:47.446Z,40.93
2023-02-14T07:59:14.654Z,39.08
2023-02-14T08:01:41.879Z,41.63
2023-02-14T08:04:09.071Z,38.55
2023-02-14T08:06:36.260Z,40.40
2023-02-14T08:09:03.510Z,36.33
2023-02-14T08:11:49.190Z,42.75
2023-02-14T08:14:16.369Z,39.75
2023-02-14T08:16:43.550Z,40.40
2023-02-14T08:19:10.970Z,37.50
2023-02-14T08:21:38.162Z,38.42
2023-02-14T08:24:05.356Z,39.15
2023-02-14T08:26:32.589Z,38.55
2023-02-14T08:28:59.764Z,40.40
2023-02-14T08:31:35.189Z,37.30
2023-02-14T08:34:03.073Z,44.13
2023-02-14T08:36:30.229Z,41.20
2023-02-14T08:38:57.790Z,37.53
2023-02-14T08:41:25.575Z,37.47
2023-02-14T08:43:52.770Z,39.60
2023-02-14T08:46:19.956Z,36.97
2023-02-14T08:48:47.232Z,40.05
2023-02-14T08:51:15.042Z,44.78
2023-02-14T08:53:42.293Z,42.25
2023-02-14T08:56:10.602Z,40.33
2023-02-14T08:58:38.787Z,37.97
2023-02-14T09:01:09.827Z,38.10
2023-02-14T09:03:38.438Z,40.35
2023-02-14T09:06:06.480Z,36.95
2023-02-14T09:08:35.088Z,37.78
2023-02-14T09:11:12.237Z,38.60
2023-02-14T09:13:39.505Z,41.08
2023-02-14T09:16:07.063Z,42.92
2023-02-14T09:18:34.482Z,42.17
2023-02-14T09:21:02.102Z,41.40
2023-02-14T09:23:29.492Z,34.92
2023-02-14T09:26:03.595Z,33.55
2023-02-14T09:28:30.793Z,39.10
2023-02-14T09:30:58.372Z,38.22
2023-02-14T09:33:49.087Z,34.58
2023-02-14T09:36:34.937Z,39.33
2023-02-14T09:39:02.096Z,38.42
2023-02-14T09:41:34.216Z,34.65
2023-02-14T09:44:02.972Z,36.85
2023-02-14T09:46:30.615Z,36.50
2023-02-14T09:48:57.819Z,36.80
2023-02-14T09:51:25.870Z,35.78
2023-02-14T09:53:55.819Z,38.55
2023-02-14T09:56:50.695Z,36.78
2023-02-14T09:59:20.757Z,33.10
2023-02-14T10:01:52.283Z,36.28
2023-02-14T10:04:35.450Z,31.05
2023-02-14T10:07:21.869Z,39.25
2023-02-14T10:10:08.741Z,32.78
2023-02-14T10:12:37.619Z,32.95
2023-02-14T10:15:24.618Z,35.67
2023-02-14T10:18:00.778Z,39.23
2023-02-14T10:20:35.864Z,38.10
2023-02-14T10:23:12.140Z,36.88
2023-02-14T10:25:44.680Z,36.80
2023-02-14T10:28:13.593Z,39.22
2023-02-14T10:30:42.854Z,38.13
2023-02-14T10:33:16.416Z,38.17
2023-02-14T10:35:53.631Z,34.10
2023-02-14T10:38:41.925Z,40.85
2023-02-14T10:41:15.319Z,33.45
2023-02-14T10:44:01.165Z,39.65
2023-02-14T10:46:32.729Z,37.08
2023-02-14T10:48:59.887Z,36.10
2023-02-14T10:51:38.053Z,32.88
2023-02-14T10:54:20.369Z,35.10
2023-02-14T10:56:50.667Z,31.87
2023-02-14T10:59:23.399Z,33.33
2023-02-14T11:01:51.718Z,33.40
2023-02-14T11:04:18.912Z,31.40
2023-02-14T11:06:49.127Z,30.98
2023-02-14T11:09:17.040Z,36.03
2023-02-14T11:11:56.773Z,35.88
2023-02-14T11:14:25.532Z,35.07
2023-02-14T11:16:53.097Z,30.60
2023-02-14T11:19:24.859Z,28.75
2023-02-14T11:21:52.263Z,32.33
2023-02-14T11:24:33.124Z,31.20
2023-02-14T11:27:04.405Z,27.52
2023-02-14T11:29:32.519Z,29.75
2023-02-14T11:32:07.252Z,31.92
2023-02-14T11:34:36.775Z,34.22
2023-02-14T11:37:04.374Z,32.00
2023-02-14T11:39:32.455Z,32.15
2023-02-14T11:42:00.921Z,29.87
2023-02-14T11:44:29.051Z,30.70
2023-02-14T11:46:56.987Z,31.60
2023-02-14T11:49:28.686Z,34.80
2023-02-14T11:51:56.197Z,31.58
2023-02-14T11:54:34.727Z,32.80
2023-02-14T11:57:02.971Z,30.70
2023-02-14T11:59:31.896Z,31.92
2023-02-14T12:01:59.750Z,32.50
2023-02-14T12:04:30.845Z,31.42
2023-02-14T12:07:11.137Z,27.73
2023-02-14T12:09:41.352Z,30.45
2023-02-14T12:12:19.192Z,28.33
2023-02-14T12:14:46.989Z,29.10
2023-02-14T12:17:23.240Z,32.97
2023-02-14T12:19:59.992Z,30.00
2023-02-14T12:22:28.650Z,33.75
2023-02-14T12:25:04.407Z,31.08
2023-02-14T12:27:44.627Z,28.60
2023-02-14T12:30:22.701Z,33.60
2023-02-14T12:32:50.646Z,31.13
2023-02-14T12:35:38.093Z,33.53
2023-02-14T12:38:14.219Z,32.17
2023-02-14T12:40:44.267Z,30.05
2023-02-14T12:43:20.444Z,29.03
2023-02-14T12:45:53.537Z,29.02
2023-02-14T12:48:24.367Z,29.10
2023-02-14T12:50:55.367Z,31.20
2023-02-14T12:53:33.873Z,28.77
2023-02-14T12:56:06.922Z,32.85
2023-02-14T12:58:50.910Z,28.55
2023-02-14T13:01:28.380Z,28.48
2023-02-14T13:04:19.780Z,30.70
2023-02-14T13:07:09.293Z,33.70
2023-02-14T13:09:52.417Z,30.58
2023-02-14T13:12:25.714Z,29.30
2023-02-14T13:15:11.626Z,28.80
2023-02-14T13:17:38.820Z,29.83
2023-02-14T13:20:08.974Z,26.95
2023-02-14T13:22:36.122Z,26.63
2023-02-14T13:25:07.472Z,31.05
2023-02-14T13:27:38.385Z,28.90
2023-02-14T13:30:06.316Z,29.77
2023-02-14T13:32:34.364Z,31.40
2023-02-14T13:35:01.491Z,30.13
2023-02-14T13:37:28.655Z,29.25
2023-02-14T13:40:06.138Z,27.55
2023-02-14T13:42:48.846Z,29.73
2023-02-14T13:45:40.012Z,28.63
2023-02-14T13:48:26.226Z,30.83
2023-02-14T13:50:57.812Z,29.73
2023-02-14T13:53:31.674Z,28.07
2023-02-14T13:55:59.133Z,26.15
2023-02-14T13:58:26.587Z,29.10
2023-02-14T14:00:53.918Z,27.67
2023-02-14T14:03:21.040Z,29.48
2023-02-14T14:05:48.944Z,27.88
2023-02-14T14:08:22.454Z,24.97
2023-02-14T14:10:56.356Z,27.48
2023-02-14T14:13:46.579Z,26.48
2023-02-14T14:16:20.160Z,30.77
2023-02-14T14:18:47.324Z,26.17
2023-02-14T14:21:15.886Z,25.48
2023-02-14T14:23:43.096Z,24.43
2023-02-14T14:26:45.578Z,28.83
2023-02-14T14:29:20.007Z,30.00
2023-02-14T14:31:47.609Z,26.17
2023-02-14T14:34:19.490Z,25.77
2023-02-14T14:36:46.972Z,24.40
2023-02-14T14:39:15.192Z,28.05
2023-02-14T14:41:44.220Z,24.50
2023-02-14T14:44:11.475Z,26.83
2023-02-14T14:46:38.705Z,26.77
2023-02-14T14:49:09.543Z,28.00
2023-02-14T14:51:36.739Z,28.67
2023-02-14T14:54:05.830Z,27.85
2023-02-14T14:56:36.753Z,31.67
2023-02-14T14:59:17.253Z,28.65
2023-02-14T15:01:44.773Z,27.77
2023-02-14T15:04:12.809Z,28.75
2023-02-14T15:06:40.890Z,30.85
2023-02-14T15:09:19.670Z,28.73
2023-02-14T15:12:06.211Z,30.42
2023-02-14T15:14:34.930Z,28.52
2023-02-14T15:17:05.515Z,29.75
2023-02-14T15:19:45.316Z,33.40
2023-02-14T15:22:20.200Z,30.90
2023-02-14T15:24:47.378Z,30.58
2023-02-14T15:27:18.146Z,31.10
2023-02-14T15:29:58.659Z,31.90
2023-02-14T15:32:26.225Z,32.78
2023-02-14T15:34:53.399Z,32.58
2023-02-14T15:37:21.476Z,36.25
2023-02-14T15:39:52.619Z,36.60
2023-02-14T15:42:25.950Z,34.40
2023-02-14T15:45:11.894Z,37.50
2023-02-14T15:47:39.048Z,37.20
2023-02-14T15:50:13.386Z,34.08
2023-02-14T15:52:41.328Z,32.25
2023-02-14T15:55:09.432Z,33.70
2023-02-14T15:57:36.588Z,33.80
2023-02-14T16:00:11.557Z,30.98
2023-02-14T16:02:41.160Z,32.13
2023-02-14T16:05:24.217Z,35.40
2023-02-14T16:07:57.482Z,35.50
2023-02-14T16:10:24.721Z,33.03
2023-02-14T16:12:57.503Z,35.40
2023-02-14T16:15:26.659Z,35.92
2023-02-14T16:17:53.885Z,36.27
2023-02-14T16:20:21.258Z,36.30
2023-02-14T16:22:48.489Z,36.40
2023-02-14T16:25:16.269Z,34.00
2023-02-14T16:27:43.538Z,39.05
2023-02-14T16:30:19.980Z,35.75
2023-02-14T16:32:51.347Z,39.75
2023-02-14T16:35:19.213Z,34.78
2023-02-14T16:37:47.436Z,35.28
2023-02-14T16:40:15.004Z,36.58
2023-02-14T16:42:42.341Z,36.83
2023-02-14T16:45:15.237Z,34.40
2023-02-14T16:47:42.392Z,40.42
2023-02-14T16:50:09.816Z,38.77
2023-02-14T16:52:36.939Z,35.10
2023-02-14T16:55:04.766Z,38.27
2023-02-14T16:57:40.007Z,35.53
2023-02-14T17:00:09.370Z,37.92
2023-02-14T17:02:36.578Z,34.72
2023-02-14T17:05:03.897Z,36.75
2023-02-14T17:07:31.820Z,36.47
2023-02-14T17:10:00.637Z,37.65
2023-02-14T17:12:29.040Z,41.55
2023-02-14T17:14:56.956Z,37.95
2023-02-14T17:17:24.129Z,37.30
2023-02-14T17:19:52.820Z,34.38
2023-02-14T17:22:20.259Z,36.42
2023-02-14T17:24:47.432Z,36.15
2023-02-14T17:27:14.740Z,37.47
2023-02-14T17:29:41.894Z,35.85
2023-02-14T17:32:12.305Z,40.72
2023-02-14T17:34:40.810Z,40.47
2023-02-14T17:37:08.038Z,36.53
2023-02-14T17:39:35.190Z,38.72
2023-02-14T17:42:02.328Z,39.28
2023-02-14T17:44:32.463Z,38.83
2023-02-14T17:46:59.671Z,39.10
2023-02-14T17:49:26.936Z,36.45
2023-02-14T17:51:54.710Z,35.08
2023-02-14T17:54:21.829Z,36.55
2023-02-14T17:56:49.021Z,37.65
2023-02-14T17:59:16.160Z,37.55
2023-02-14T18:01:43.758Z,41.38
2023-02-14T18:04:10.939Z,36.25
2023-02-14T18:06:38.147Z,37.80
2023-02-14T18:09:05.627Z,42.22
2023-02-14T18:11:32.764Z,37.45
2023-02-14T18:14:01.636Z,35.40
2023-02-14T18:16:28.888Z,36.88
2023-02-14T18:18:56.138Z,35.75
2023-02-14T18:21:24.578Z,38.08
2023-02-14T18:23:51.975Z,42.55
2023-02-14T18:26:19.236Z,39.17
2023-02-14T18:28:46.595Z,35.35
2023-02-14T18:31:14.713Z,39.72
2023-02-14T18:33:42.008Z,37.67
2023-02-14T18:36:11.958Z,41.55
2023-02-14T18:38:39.543Z,39.72
2023-02-14T18:41:07.083Z,40.40
2023-02-14T18:43:34.241Z,39.38
2023-02-14T18:46:08.695Z,39.65
2023-02-14T18:48:36.059Z,39.67
2023-02-14T18:51:09.814Z,38.53
2023-02-14T18:53:37.458Z,39.90
2023-02-14T18:56:05.661Z,43.88
2023-02-14T18:58:33.409Z,42.25
2023-02-14T19:01:07.435Z,40.38
2023-02-14T19:03:34.728Z,42.80
2023-02-14T19:06:01.883Z,42.33
2023-02-14T19:08:31.407Z,38.75
2023-02-14T19:10:58.941Z,40.03
2023-02-14T19:13:29.224Z,41.25
2023-02-14T19:15:56.591Z,37.95
2023-02-14T19:18:25.705Z,36.55
2023-02-14T19:20:53.055Z,40.17
2023-02-14T19:23:20.320Z,38.33
2023-02-14T19:25:48.261Z,41.03
2023-02-14T19:28:15.661Z,41.20
2023-02-14T19:30:42.889Z,38.55
2023-02-14T19:33:10.027Z,40.00
2023-02-14T19:35:37.220Z,39.42
2023-02-14T19:38:04.389Z,38.47
2023-02-14T19:40:31.581Z,39.47
2023-02-14T19:42:58.944Z,41.47
2023-02-14T19:45:27.372Z,42.88
2023-02-14T19:47:54.556Z,40.50
2023-02-14T19:50:22.140Z,37.47
2023-02-14T19:52:49.352Z,42.22
2023-02-14T19:55:23.115Z,40.88
2023-02-14T19:57:50.393Z,39.80
2023-02-14T20:00:17.755Z,41.08
2023-02-14T20:02:48.157Z,41.72
2023-02-14T20:05:18.452Z,42.47
2023-02-14T20:07:49.167Z,39.13
2023-02-14T20:10:16.454Z,39.40
2023-02-14T20:12:43.582Z,44.77
2023-02-14T20:15:11.108Z,41.88
2023-02-14T20:17:38.349Z,44.28
2023-02-14T20:20:13.244Z,41.40
2023-02-14T20:22:41.117Z,39.83
2023-02-14T20:25:09.659Z,39.63
2023-02-14T20:27:37.084Z,40.65
2023-02-14T20:30:04.980Z,41.90
2023-02-14T20:32:32.849Z,45.00
2023-02-14T20:35:00.046Z,42.22
2023-02-14T20:37:27.670Z,44.65
2023-02-14T20:39:54.821Z,41.67
2023-02-14T20:42:22.348Z,43.63
2023-02-14T20:44:49.915Z,43.40
2023-02-14T20:47:17.484Z,43.47
2023-02-14T20:49:44.846Z,39.58
2023-02-14T20:52:12.640Z,43.60
2023-02-14T20:54:39.999Z,43.17
2023-02-14T20:57:07.266Z,50.15
2023-02-14T20:59:34.414Z,45.63
2023-02-14T21:02:01.571Z,43.20
2023-02-14T21:04:28.903Z,49.00
2023-02-14T21:06:57.853Z,48.65
2023-02-14T21:09:25.193Z,49.85
2023-02-14T21:11:54.131Z,47.83
2023-02-14T21:14:21.375Z,52.00
2023-02-14T21:16:48.591Z,48.05
2023-02-14T21:19:15.848Z,48.40
2023-02-14T21:21:43.017Z,48.47
2023-02-14T21:24:14.678Z,44.92
2023-02-14T21:26:42.134Z,51.90
2023-02-14T21:29:09.440Z,50.88
2023-02-14T21:31:36.767Z,47.83
2023-02-14T21:34:04.894Z,48.17
2023-02-14T21:36:32.636Z,46.28
2023-02-14T21:39:00.224Z,47.93
2023-02-14T21:41:30.795Z,52.00
2023-02-14T21:43:58.327Z,44.58
2023-02-14T21:46:27.649Z,50.13
2023-02-14T21:49:13.778Z,45.75
2023-02-14T21:51:41.099Z,45.90
2023-02-14T21:54:08.469Z,45.13
2023-02-14T21:56:35.819Z,47.35
2023-02-14T21:59:02.966Z,47.53
2023-02-14T22:01:31.476Z,40.03
2023-02-14T22:03:59.292Z,43.58
2023-02-14T22:06:26.883Z,42.65
2023-02-14T22:08:54.952Z,42.42
2023-02-14T22:11:22.261Z,49.45
2023-02-14T22:13:49.429Z,46.30
2023-02-14T22:16:17.232Z,46.15
2023-02-14T22:18:45.898Z,46.10
2023-02-14T22:21:16.473Z,50.85
2023-02-14T22:23:43.656Z,51.28
2023-02-14T22:26:15.005Z,50.90
2023-02-14T22:28:42.418Z,48.90
2023-02-14T22:31:09.891Z,51.45
2023-02-14T22:33:37.931Z,51.50
2023-02-14T22:36:05.581Z,50.97
2023-02-14T22:38:32.720Z,48.47
2023-02-14T22:41:05.110Z,50.38
2023-02-14T22:43:32.260Z,52.30
2023-02-14T22:46:06.256Z,52.63
2023-02-14T22:48:34.037Z,51.20
2023-02-14T22:51:11.005Z,49.97
2023-02-14T22:53:38.224Z,52.37
2023-02-14T22:56:15.762Z,49.60
2023-02-14T22:58:43.025Z,45.97
2023-02-14T23:01:17.253Z,54.58
2023-02-14T23:03:44.855Z,50.03
2023-02-14T23:06:12.029Z,51.60
2023-02-14T23:08:42.623Z,50.42
2023-02-14T23:11:13.281Z,53.38
2023-02-14T23:13:59.087Z,54.25
2023-02-14T23:16:44.803Z,49.15
2023-02-14T23:19:33.967Z,54.53
2023-02-14T23:22:08.473Z,52.40
2023-02-14T23:24:35.664Z,56.38
2023-02-14T23:27:02.897Z,53.00
2023-02-14T23:29:30.148Z,54.05
2023-02-14T23:31:57.406Z,54.78
2023-02-14T23:34:28.118Z,53.30
2023-02-14T23:36:55.305Z,49.67
2023-02-14T23:39:23.068Z,50.80
2023-02-14T23:41:50.370Z,54.55
2023-02-14T23:44:18.709Z,49.15
2023-02-14T23:46:46.191Z,49.03
2023-02-14T23:49:13.683Z,50.77
2023-02-14T23:51:40.870Z,51.78
2023-02-14T23:54:08.382Z,51.65
2023-02-14T23:56:35.856Z,49.55
2023-02-14T23:59:03.117Z,51.70
